createdAt,value
2018-09-17T00:00:05.044Z,37.4
2018-09-17T00:02:08.230Z,37.6
2018-09-17T00:04:08.443Z,37.4
2018-09-17T00:06:10.256Z,37.4
2018-09-17T00:08:05.074Z,37.4
2018-09-17T00:10:05.790Z,37.4
2018-09-17T00:12:05.514Z,37.2
2018-09-17T00:14:05.226Z,37.4
2018-09-17T00:16:05.981Z,37.3
2018-09-17T00:18:05.622Z,37.2
2018-09-17T00:20:05.301Z,37.2
2018-09-17T00:22:05.598Z,37.1
2018-09-17T00:24:05.319Z,37.4
2018-09-17T00:26:05.070Z,37.3
2018-09-17T00:28:05.767Z,37.2
2018-09-17T00:30:05.429Z,37.2
2018-09-17T00:32:05.085Z,37.1
2018-09-17T00:34:05.513Z,37.2
2018-09-17T00:36:05.748Z,37.2
2018-09-17T00:38:05.544Z,37.2
2018-09-17T00:40:05.268Z,37.5
2018-09-17T00:42:11.008Z,37.4
2018-09-17T00:44:05.280Z,37.4
2018-09-17T00:46:06.000Z,37.4
2018-09-17T00:48:07.751Z,37.3
2018-09-17T00:50:05.430Z,37.2
2018-09-17T00:52:10.750Z,37.1
2018-09-17T00:54:05.978Z,37.2
2018-09-17T00:56:05.798Z,37.1
2018-09-17T00:58:05.528Z,37.1
2018-09-17T01:00:05.743Z,37.1
2018-09-17T01:02:13.054Z,37
2018-09-17T01:04:05.282Z,37
2018-09-17T01:06:06.019Z,37
2018-09-17T01:08:05.779Z,36.9
2018-09-17T01:10:08.136Z,36.9
2018-09-17T01:12:08.034Z,36.9
2018-09-17T01:14:10.797Z,36.9
2018-09-17T01:16:05.526Z,37.1
2018-09-17T01:18:05.412Z,37
2018-09-17T01:20:05.242Z,37.2
2018-09-17T01:22:08.429Z,37
2018-09-17T01:24:10.270Z,37.2
2018-09-17T01:26:05.946Z,37.2
2018-09-17T01:28:05.200Z,37.2
2018-09-17T01:30:05.880Z,37.1
2018-09-17T01:32:05.560Z,37
2018-09-17T01:34:05.274Z,37.2
2018-09-17T01:36:05.947Z,37.1
2018-09-17T01:38:08.183Z,37.1
2018-09-17T01:40:05.887Z,36.8
2018-09-17T01:42:05.575Z,37
2018-09-17T01:44:05.250Z,37.1
2018-09-17T01:46:05.584Z,36.9
2018-09-17T01:48:05.381Z,36.9
2018-09-17T01:50:05.213Z,36.8
2018-09-17T01:52:05.880Z,37.1
2018-09-17T01:54:05.607Z,37
2018-09-17T01:56:07.887Z,36.8
2018-09-17T01:58:10.745Z,36.6
2018-09-17T02:00:05.488Z,36.6
2018-09-17T02:02:05.294Z,36.5
2018-09-17T02:04:06.013Z,36.9
2018-09-17T02:06:05.712Z,37
2018-09-17T02:08:05.689Z,37.1
2018-09-17T02:10:05.911Z,36.9
2018-09-17T02:12:05.696Z,36.8
2018-09-17T02:14:13.076Z,36.8
2018-09-17T02:16:05.813Z,36.8
2018-09-17T02:18:05.287Z,37
2018-09-17T02:20:06.040Z,36.7
2018-09-17T02:22:08.538Z,36.9
2018-09-17T02:24:05.323Z,36.9
2018-09-17T02:26:05.043Z,36.8
2018-09-17T02:28:05.780Z,36.7
2018-09-17T02:30:05.487Z,36.8
2018-09-17T02:32:05.373Z,36.8
2018-09-17T02:34:05.062Z,36.8
2018-09-17T02:36:05.850Z,36.7
2018-09-17T02:38:05.607Z,36.7
2018-09-17T02:40:05.315Z,36.7
2018-09-17T02:42:07.604Z,36.6
2018-09-17T02:44:08.432Z,36.7
2018-09-17T02:46:05.137Z,36.4
2018-09-17T02:48:13.510Z,36.6
2018-09-17T02:50:10.282Z,36.4
2018-09-17T02:52:06.051Z,36.4
2018-09-17T02:54:07.807Z,36.4
2018-09-17T02:56:05.545Z,36.4
2018-09-17T02:58:05.273Z,36.5
2018-09-17T03:00:06.002Z,36.6
2018-09-17T03:02:05.733Z,36.6
2018-09-17T03:04:05.498Z,36.6
2018-09-17T03:06:05.268Z,36.5
2018-09-17T03:08:05.441Z,36.5
2018-09-17T03:10:07.740Z,36.4
2018-09-17T03:12:06.109Z,36.5
2018-09-17T03:14:05.911Z,36.4
2018-09-17T03:16:05.734Z,36.1
2018-09-17T03:18:05.677Z,36.2
2018-09-17T03:20:05.372Z,36.3
2018-09-17T03:22:05.056Z,36.2
2018-09-17T03:24:05.795Z,36.5
2018-09-17T03:26:05.049Z,36.3
2018-09-17T03:28:05.751Z,36.3
2018-09-17T03:30:05.472Z,36.3
2018-09-17T03:32:05.241Z,36.3
2018-09-17T03:34:08.593Z,40
2018-09-17T03:36:05.331Z,40.5
2018-09-17T03:38:05.026Z,40.7
2018-09-17T03:40:05.670Z,41.3
2018-09-17T03:42:05.319Z,41.6
2018-09-17T03:44:05.208Z,41.4
2018-09-17T03:46:05.575Z,41.7
2018-09-17T03:48:05.479Z,40.9
2018-09-17T03:50:05.197Z,40.8
2018-09-17T03:52:05.523Z,41
2018-09-17T03:54:07.802Z,40.8
2018-09-17T03:56:05.545Z,40.7
2018-09-17T03:58:13.395Z,40.1
2018-09-17T04:00:07.603Z,40.1
2018-09-17T04:02:05.338Z,40.3
2018-09-17T04:04:05.053Z,40.2
2018-09-17T04:06:07.833Z,39.9
2018-09-17T04:08:05.551Z,39.9
2018-09-17T04:10:05.796Z,39.9
2018-09-17T04:12:05.568Z,39.9
2018-09-17T04:14:05.249Z,39.7
2018-09-17T04:16:08.555Z,39.8
2018-09-17T04:18:05.429Z,39.7
2018-09-17T04:20:07.640Z,39.8
2018-09-17T04:22:05.321Z,39.8
2018-09-17T04:24:06.008Z,39.8
2018-09-17T04:26:05.772Z,39.8
2018-09-17T04:28:05.465Z,39.7
2018-09-17T04:30:05.190Z,40.1
2018-09-17T04:32:08.505Z,39.8
2018-09-17T04:34:05.811Z,39.8
2018-09-17T04:36:05.499Z,39.7
2018-09-17T04:38:07.743Z,39.7
2018-09-17T04:40:05.944Z,39.7
2018-09-17T04:42:05.289Z,39.7
2018-09-17T04:44:05.995Z,39.4
2018-09-17T04:46:11.952Z,35.7
2018-09-17T04:48:11.624Z,36.2
2018-09-17T04:50:05.444Z,36.8
2018-09-17T04:52:05.675Z,36.3
2018-09-17T04:54:05.939Z,36.4
2018-09-17T04:56:10.739Z,36.7
2018-09-17T04:58:07.951Z,36.8
2018-09-17T05:00:08.157Z,36.9
2018-09-17T05:02:11.028Z,36.9
2018-09-17T05:04:05.690Z,37
2018-09-17T05:06:05.370Z,37.1
2018-09-17T05:08:05.070Z,37.1
2018-09-17T05:10:08.370Z,37
2018-09-17T05:12:05.110Z,37
2018-09-17T05:14:05.795Z,37
2018-09-17T05:16:05.485Z,37.1
2018-09-17T05:18:10.451Z,37.2
2018-09-17T05:20:07.687Z,37.2
2018-09-17T05:22:05.369Z,37
2018-09-17T05:24:05.585Z,37.2
2018-09-17T05:26:07.841Z,37.1
2018-09-17T05:28:08.112Z,37.1
2018-09-17T05:30:05.851Z,37.1
2018-09-17T05:32:07.660Z,37
2018-09-17T05:34:05.353Z,37
2018-09-17T05:36:07.607Z,36.8
2018-09-17T05:38:05.840Z,36.9
2018-09-17T05:40:05.535Z,36.9
2018-09-17T05:42:05.233Z,36.9
2018-09-17T05:44:05.967Z,36.8
2018-09-17T05:46:05.713Z,36.8
2018-09-17T05:48:05.526Z,36.6
2018-09-17T05:50:10.313Z,36.7
2018-09-17T05:52:05.093Z,36.7
2018-09-17T05:54:05.809Z,36.5
2018-09-17T05:56:07.555Z,36.7
2018-09-17T05:58:10.320Z,36.5
2018-09-17T06:00:07.635Z,36.7
2018-09-17T06:02:05.311Z,36.5
2018-09-17T06:04:05.986Z,36.4
2018-09-17T06:06:05.413Z,36.4
2018-09-17T06:08:05.492Z,36.6
2018-09-17T06:10:05.186Z,36.6
2018-09-17T06:12:05.898Z,36.5
2018-09-17T06:14:08.137Z,36.5
2018-09-17T06:16:05.821Z,36.5
2018-09-17T06:18:05.319Z,36.5
2018-09-17T06:20:05.566Z,36.5
2018-09-17T06:22:05.269Z,36.4
2018-09-17T06:24:05.980Z,36.5
2018-09-17T06:26:05.686Z,36.3
2018-09-17T06:28:05.466Z,36.4
2018-09-17T06:30:05.221Z,36.4
2018-09-17T06:32:05.454Z,36.4
2018-09-17T06:34:05.664Z,36.6
2018-09-17T06:36:07.986Z,36.5
2018-09-17T06:38:06.064Z,36.5
2018-09-17T06:40:05.982Z,36.6
2018-09-17T06:42:05.693Z,36.6
2018-09-17T06:44:07.895Z,36.7
2018-09-17T06:46:05.581Z,36.7
2018-09-17T06:48:05.327Z,37
2018-09-17T06:50:05.560Z,36.9
2018-09-17T06:52:08.330Z,37.1
2018-09-17T06:54:07.562Z,37.2
2018-09-17T06:56:07.801Z,37
2018-09-17T06:58:08.004Z,37.2
2018-09-17T07:00:05.674Z,37.2
2018-09-17T07:02:06.378Z,37
2018-09-17T07:04:05.154Z,37.3
2018-09-17T07:06:05.956Z,37.2
2018-09-17T07:08:05.930Z,37.3
2018-09-17T07:10:05.179Z,37.5
2018-09-17T07:12:05.882Z,37.5
2018-09-17T07:14:05.674Z,37.5
2018-09-17T07:16:05.392Z,37.4
2018-09-17T07:18:08.049Z,37.5
2018-09-17T07:20:13.554Z,37.8
2018-09-17T07:22:05.225Z,37.8
2018-09-17T07:24:05.881Z,37.8
2018-09-17T07:26:05.531Z,38
2018-09-17T07:28:05.280Z,37.9
2018-09-17T07:30:11.094Z,37.9
2018-09-17T07:32:05.791Z,37.9
2018-09-17T07:34:05.433Z,38
2018-09-17T07:36:05.163Z,38.4
2018-09-17T07:38:05.946Z,38.7
2018-09-17T07:40:05.649Z,38.7
2018-09-17T07:42:05.458Z,38.8
2018-09-17T07:44:05.516Z,39.3
2018-09-17T07:46:05.166Z,39.3
2018-09-17T07:48:08.442Z,38.2
2018-09-17T07:50:07.658Z,38.2
2018-09-17T07:52:08.416Z,38.2
2018-09-17T07:54:05.072Z,38.2
2018-09-17T07:56:05.742Z,38.3
2018-09-17T07:58:05.442Z,38.3
2018-09-17T08:00:07.707Z,38.3
2018-09-17T08:02:07.899Z,38.5
2018-09-17T08:04:05.644Z,38.5
2018-09-17T08:06:05.311Z,38.6
2018-09-17T08:08:06.001Z,38.4
2018-09-17T08:10:08.258Z,38.4
2018-09-17T08:12:05.475Z,38.4
2018-09-17T08:14:07.655Z,38.2
2018-09-17T08:16:05.370Z,38.2
2018-09-17T08:18:05.268Z,38.3
2018-09-17T08:20:07.581Z,38.3
2018-09-17T08:22:05.262Z,38.3
2018-09-17T08:24:05.984Z,38.4
2018-09-17T08:26:05.720Z,38.3
2018-09-17T08:28:05.432Z,38.4
2018-09-17T08:30:05.133Z,38.2
2018-09-17T08:32:05.874Z,38.4
2018-09-17T08:34:05.553Z,38.2
2018-09-17T08:36:10.815Z,38.3
2018-09-17T08:38:05.565Z,38.3
2018-09-17T08:40:05.224Z,38.2
2018-09-17T08:42:05.466Z,38.4
2018-09-17T08:44:06.146Z,38.7
2018-09-17T08:46:05.873Z,38.4
2018-09-17T08:48:08.088Z,38.3
2018-09-17T08:50:05.791Z,38
2018-09-17T08:52:08.638Z,38.1
2018-09-17T08:54:05.446Z,38.1
2018-09-17T08:56:05.155Z,38.1
2018-09-17T08:58:10.933Z,37.9
2018-09-17T09:00:08.298Z,38
2018-09-17T09:02:13.558Z,38
2018-09-17T09:04:05.335Z,38
2018-09-17T09:06:05.326Z,37.9
2018-09-17T09:08:06.048Z,38.1
2018-09-17T09:10:08.313Z,37.8
2018-09-17T09:12:06.081Z,37.8
2018-09-17T09:14:05.763Z,38
2018-09-17T09:16:08.024Z,38
2018-09-17T09:18:05.535Z,38
2018-09-17T09:20:05.247Z,37.8
2018-09-17T09:22:05.986Z,38.1
2018-09-17T09:24:05.461Z,37.7
2018-09-17T09:26:05.148Z,37.9
2018-09-17T09:28:05.847Z,37.8
2018-09-17T09:30:05.629Z,38.1
2018-09-17T09:32:05.855Z,38
2018-09-17T09:34:08.069Z,37.9
2018-09-17T09:36:08.245Z,37.9
2018-09-17T09:38:10.549Z,37.9
2018-09-17T09:40:13.114Z,37.7
2018-09-17T09:42:05.810Z,37.7
2018-09-17T09:44:05.531Z,37.7
2018-09-17T09:46:10.241Z,37.7
2018-09-17T09:48:05.905Z,37.7
2018-09-17T09:50:05.618Z,37.7
2018-09-17T09:52:05.369Z,37.6
2018-09-17T09:54:05.029Z,37.7
2018-09-17T09:56:05.785Z,38
2018-09-17T09:58:08.053Z,37.7
2018-09-17T10:00:05.783Z,37.7
2018-09-17T10:02:08.115Z,37.7
2018-09-17T10:04:05.863Z,37.5
2018-09-17T10:06:05.602Z,37.6
2018-09-17T10:08:05.282Z,37.4
2018-09-17T10:10:05.965Z,37.6
2018-09-17T10:12:05.645Z,37.5
2018-09-17T10:14:05.390Z,37.6
2018-09-17T10:16:07.610Z,37.4
2018-09-17T10:18:08.115Z,37.4
2018-09-17T10:20:05.801Z,37.4
2018-09-17T10:22:10.060Z,37.2
2018-09-17T10:24:13.303Z,37.2
2018-09-17T10:26:06.062Z,37.4
2018-09-17T10:28:05.771Z,37.2
2018-09-17T10:30:05.970Z,37.2
2018-09-17T10:32:08.175Z,37.1
2018-09-17T10:34:07.942Z,37.3
2018-09-17T10:36:08.144Z,37
2018-09-17T10:38:05.859Z,37.2
2018-09-17T10:40:05.538Z,37.1
2018-09-17T10:42:05.248Z,37.2
2018-09-17T10:44:08.523Z,37
2018-09-17T10:46:05.205Z,37
2018-09-17T10:48:05.896Z,37.1
2018-09-17T10:50:10.726Z,36.9
2018-09-17T10:52:05.385Z,36.9
2018-09-17T10:54:07.604Z,36.8
2018-09-17T10:56:10.342Z,36.8
2018-09-17T10:58:05.041Z,36.8
2018-09-17T11:00:05.237Z,36.8
2018-09-17T11:02:08.465Z,36.7
2018-09-17T11:04:05.143Z,36.6
2018-09-17T11:06:05.489Z,37
2018-09-17T11:08:05.063Z,36.9
2018-09-17T11:10:05.803Z,37.2
2018-09-17T11:12:05.515Z,37.3
2018-09-17T11:14:05.185Z,37.2
2018-09-17T11:16:10.467Z,36.9
2018-09-17T11:18:05.362Z,36.8
2018-09-17T11:20:05.066Z,36.8
2018-09-17T11:22:05.782Z,36.7
2018-09-17T11:24:05.507Z,36.5
2018-09-17T11:26:08.227Z,36.5
2018-09-17T11:28:13.517Z,36.5
2018-09-17T11:30:05.260Z,36.5
2018-09-17T11:32:05.947Z,36.6
2018-09-17T11:34:05.604Z,36.6
2018-09-17T11:36:05.249Z,36.6
2018-09-17T11:38:05.946Z,36.3
2018-09-17T11:40:15.828Z,36.8
2018-09-17T11:42:05.552Z,36.9
2018-09-17T11:44:05.208Z,37
2018-09-17T11:46:05.888Z,38.2
2018-09-17T11:48:05.679Z,38.4
2018-09-17T11:50:07.985Z,37.6
2018-09-17T11:52:05.665Z,37.6
2018-09-17T11:54:05.710Z,37.8
2018-09-17T11:56:05.661Z,38
2018-09-17T11:58:05.410Z,37.5
2018-09-17T12:00:05.155Z,37.4
2018-09-17T12:02:09.404Z,37.1
2018-09-17T12:04:07.950Z,36.9
2018-09-17T12:06:05.663Z,36.8
2018-09-17T12:08:11.061Z,36.8
2018-09-17T12:10:08.363Z,36.4
2018-09-17T12:12:07.651Z,36.6
2018-09-17T12:14:05.561Z,36.5
2018-09-17T12:16:05.228Z,36.4
2018-09-17T12:18:05.146Z,36.5
2018-09-17T12:20:15.957Z,36.1
2018-09-17T12:22:05.394Z,36.1
2018-09-17T12:24:05.551Z,35.9
2018-09-17T12:26:07.921Z,35.9
2018-09-17T12:28:05.639Z,35.9
2018-09-17T12:30:05.544Z,35.8
2018-09-17T12:32:05.310Z,35.6
2018-09-17T12:34:11.120Z,35.5
2018-09-17T12:36:05.266Z,35.5
2018-09-17T12:38:05.946Z,35.4
2018-09-17T12:40:05.285Z,35.2
2018-09-17T12:42:05.984Z,35.1
2018-09-17T12:44:05.324Z,34.8
2018-09-17T12:46:05.010Z,34.9
2018-09-17T12:48:05.655Z,34.6
2018-09-17T12:50:05.361Z,34.7
2018-09-17T12:52:10.168Z,33.9
2018-09-17T12:54:05.894Z,34
2018-09-17T12:56:05.554Z,33.9
2018-09-17T12:58:05.258Z,33.4
2018-09-17T13:00:05.089Z,33.6
2018-09-17T13:02:07.556Z,33.4
2018-09-17T13:04:05.838Z,33.4
2018-09-17T13:06:13.558Z,32.7
2018-09-17T13:08:10.312Z,32.3
2018-09-17T13:10:07.534Z,32.4
2018-09-17T13:12:08.266Z,32.3
2018-09-17T13:14:05.984Z,32.4
2018-09-17T13:16:15.517Z,32
2018-09-17T13:18:05.374Z,32
2018-09-17T13:20:08.107Z,31.7
2018-09-17T13:22:05.813Z,31.7
2018-09-17T13:24:08.052Z,31.4
2018-09-17T13:26:05.764Z,31.3
2018-09-17T13:28:05.484Z,31.2
2018-09-17T13:30:05.494Z,31.5
2018-09-17T13:32:08.552Z,31.1
2018-09-17T13:34:05.459Z,30.8
2018-09-17T13:36:05.134Z,30.9
2018-09-17T13:38:06.310Z,30.7
2018-09-17T13:40:15.819Z,30.8
2018-09-17T13:42:08.428Z,30.7
2018-09-17T13:44:05.365Z,30.7
2018-09-17T13:48:06.496Z,30.3
2018-09-17T13:50:05.449Z,30.3
2018-09-17T13:51:01.315Z,30.3
2018-09-17T13:52:05.797Z,30.1
2018-09-17T13:54:05.093Z,30.3
2018-09-17T13:56:05.886Z,30.4
2018-09-17T13:58:05.849Z,30.3
2018-09-17T14:00:05.097Z,30.5
2018-09-17T14:02:05.784Z,30.3
2018-09-17T14:04:05.733Z,30.4
2018-09-17T14:06:05.155Z,30.3
2018-09-17T14:08:06.093Z,30.3
2018-09-17T14:10:08.399Z,30.1
2018-09-17T14:12:05.347Z,30.1
2018-09-17T14:14:05.092Z,30
2018-09-17T14:16:12.961Z,30.3
2018-09-17T14:18:05.615Z,30.3
2018-09-17T14:20:05.354Z,30.8
2018-09-17T14:22:07.708Z,31.7
2018-09-17T14:24:11.820Z,32.6
2018-09-17T14:26:05.929Z,32.7
2018-09-17T14:28:05.589Z,33
2018-09-17T14:30:11.342Z,33.3
2018-09-17T14:32:08.124Z,33.4
2018-09-17T14:34:06.116Z,33.4
2018-09-17T14:36:05.244Z,33.3
2018-09-17T14:38:05.175Z,33.5
2018-09-17T14:40:07.132Z,33.4
2018-09-17T14:42:05.099Z,33
2018-09-17T14:44:05.967Z,33
2018-09-17T14:46:05.992Z,32.9
2018-09-17T14:48:05.321Z,32.8
2018-09-17T14:50:05.453Z,32.7
2018-09-17T14:52:07.369Z,32.4
2018-09-17T14:54:05.853Z,32.3
2018-09-17T14:56:06.593Z,32.5
2018-09-17T14:58:05.889Z,32.4
2018-09-17T15:00:10.289Z,32.3
2018-09-17T15:02:05.887Z,32.3
2018-09-17T15:04:05.499Z,32.3
2018-09-17T15:06:05.728Z,32.2
2018-09-17T15:08:08.532Z,32.1
2018-09-17T15:10:06.226Z,32.1
2018-09-17T15:12:09.180Z,32.1
2018-09-17T15:14:11.131Z,32.1
2018-09-17T15:16:05.622Z,32.1
2018-09-17T15:18:08.186Z,32
2018-09-17T15:20:08.001Z,32.2
2018-09-17T15:22:07.966Z,32.2
2018-09-17T15:24:06.053Z,32
2018-09-17T15:26:06.346Z,32.2
2018-09-17T15:28:05.475Z,32.1
2018-09-17T15:30:07.720Z,32.1
2018-09-17T15:32:13.873Z,32.1
2018-09-17T15:34:07.066Z,32.1
2018-09-17T15:36:06.187Z,32.2
2018-09-17T15:38:06.022Z,32.1
2018-09-17T15:40:08.711Z,32.1
2018-09-17T15:42:06.869Z,32.1
2018-09-17T15:44:06.177Z,32.2
2018-09-17T15:46:05.489Z,32.1
2018-09-17T15:48:05.853Z,32.1
2018-09-17T15:50:08.710Z,32.1
2018-09-17T15:52:07.800Z,32.1
2018-09-17T15:54:07.703Z,32
2018-09-17T15:56:05.686Z,32
2018-09-17T15:58:05.240Z,32.1
2018-09-17T16:00:05.217Z,32.1
2018-09-17T16:02:05.180Z,32.1
2018-09-17T16:04:06.190Z,32.1
2018-09-17T16:06:05.959Z,32.1
2018-09-17T16:08:08.401Z,32
2018-09-17T16:10:07.896Z,31.9
2018-09-17T16:12:08.099Z,31.9
2018-09-17T16:14:06.347Z,31.9
2018-09-17T16:16:06.584Z,31.9
2018-09-17T16:18:05.500Z,32
2018-09-17T16:20:06.646Z,32
2018-09-17T16:22:08.269Z,32
2018-09-17T16:24:06.980Z,32
2018-09-17T16:26:05.783Z,32
2018-09-17T16:28:05.671Z,32
2018-09-17T16:30:05.638Z,32
2018-09-17T16:32:05.106Z,32.1
2018-09-17T16:34:05.527Z,32.1
2018-09-17T16:36:05.305Z,32.2
2018-09-17T16:38:04.988Z,32.2
2018-09-17T16:40:08.633Z,32.2
2018-09-17T16:42:05.059Z,32.4
2018-09-17T16:44:05.960Z,32.4
2018-09-17T16:46:05.613Z,32.6
2018-09-17T16:48:05.325Z,32.7
2018-09-17T16:50:05.060Z,32.8
2018-09-17T16:52:05.788Z,33.1
2018-09-17T16:54:07.996Z,33.5
2018-09-17T16:56:05.766Z,33.2
2018-09-17T16:58:05.468Z,33.3
2018-09-17T17:00:07.781Z,33.7
2018-09-17T17:02:05.492Z,33.7
2018-09-17T17:04:05.176Z,33.7
2018-09-17T17:06:06.094Z,34
2018-09-17T17:08:05.862Z,34
2018-09-17T17:10:05.672Z,34
2018-09-17T17:12:15.248Z,33.7
2018-09-17T17:14:05.947Z,33.7
2018-09-17T17:16:05.980Z,33.4
2018-09-17T17:18:05.764Z,33.1
2018-09-17T17:20:05.446Z,33.3
2018-09-17T17:22:05.285Z,33.2
2018-09-17T17:24:05.167Z,33.2
2018-09-17T17:26:05.929Z,33.1
2018-09-17T17:28:05.444Z,33
2018-09-17T17:30:05.343Z,32.9
2018-09-17T17:32:05.074Z,32.8
2018-09-17T17:34:05.799Z,32.7
2018-09-17T17:36:05.639Z,32.7
2018-09-17T17:38:05.194Z,32.5
2018-09-17T17:40:06.081Z,32.7
2018-09-17T17:42:08.507Z,33.3
2018-09-17T17:44:13.052Z,33.4
2018-09-17T17:46:08.651Z,33.5
2018-09-17T17:48:08.509Z,33.4
2018-09-17T17:50:05.221Z,33.5
2018-09-17T17:52:05.913Z,33.5
2018-09-17T17:54:05.827Z,33.4
2018-09-17T17:56:05.521Z,33.5
2018-09-17T17:58:07.839Z,34.5
2018-09-17T18:00:05.715Z,34.5
2018-09-17T18:02:05.505Z,34.2
2018-09-17T18:04:08.367Z,33.8
2018-09-17T18:06:05.163Z,33.8
2018-09-17T18:08:05.466Z,33.8
2018-09-17T18:10:05.650Z,33.5
2018-09-17T18:12:05.862Z,33.6
2018-09-17T18:14:06.064Z,34.5
2018-09-17T18:16:05.721Z,33.8
2018-09-17T18:18:05.657Z,33.9
2018-09-17T18:20:05.594Z,33.9
2018-09-17T18:22:08.363Z,34.5
2018-09-17T18:24:07.649Z,34.5
2018-09-17T18:26:05.346Z,34.5
2018-09-17T18:28:05.583Z,34.5
2018-09-17T18:30:05.359Z,34.8
2018-09-17T18:32:10.151Z,35.6
2018-09-17T18:34:05.351Z,35.6
2018-09-17T18:36:07.670Z,35.4
2018-09-17T18:38:05.435Z,35.4
2018-09-17T18:40:05.196Z,35.5
2018-09-17T18:42:08.411Z,35.3
2018-09-17T18:44:05.165Z,35.3
2018-09-17T18:46:05.844Z,34.6
2018-09-17T18:48:05.677Z,35
2018-09-17T18:50:08.128Z,34.5
2018-09-17T18:52:05.808Z,34.5
2018-09-17T18:54:10.733Z,34.3
2018-09-17T18:56:10.497Z,34.1
2018-09-17T18:58:05.874Z,34.3
2018-09-17T19:00:05.602Z,34.4
2018-09-17T19:02:10.509Z,35.4
2018-09-17T19:04:05.586Z,35.4
2018-09-17T19:06:05.414Z,35.2
2018-09-17T19:08:05.641Z,35.1
2018-09-17T19:10:05.400Z,35
2018-09-17T19:12:05.666Z,36.1
2018-09-17T19:14:06.028Z,35.2
2018-09-17T19:16:05.344Z,28.5
2018-09-17T19:18:05.317Z,34.9
2018-09-17T19:20:05.396Z,35
2018-09-17T19:22:06.021Z,34.8
2018-09-17T19:24:05.335Z,34.8
2018-09-17T19:26:05.267Z,34.9
2018-09-17T19:28:12.902Z,35
2018-09-17T19:30:05.943Z,35.2
2018-09-17T19:32:06.036Z,35.3
2018-09-17T19:34:06.231Z,35.3
2018-09-17T19:36:05.316Z,35.3
2018-09-17T19:38:05.235Z,35.2
2018-09-17T19:40:05.615Z,35
2018-09-17T19:42:06.112Z,35.6
2018-09-17T19:44:05.096Z,35.7
2018-09-17T19:46:05.570Z,35.6
2018-09-17T19:48:05.197Z,35.5
2018-09-17T19:50:08.833Z,35.5
2018-09-17T19:52:05.601Z,35.5
2018-09-17T19:54:05.365Z,35.7
2018-09-17T19:56:05.644Z,35.7
2018-09-17T19:58:05.409Z,35.4
2018-09-17T20:00:07.599Z,35.8
2018-09-17T20:02:10.339Z,35.9
2018-09-17T20:04:07.645Z,36.1
2018-09-17T20:06:05.355Z,36.1
2018-09-17T20:08:08.109Z,35.8
2018-09-17T20:10:08.390Z,36
2018-09-17T20:12:13.370Z,35.8
2018-09-17T20:14:07.644Z,35.9
2018-09-17T20:16:08.010Z,35.9
2018-09-17T20:18:05.926Z,35.8
2018-09-17T20:20:05.737Z,35.8
2018-09-17T20:22:05.434Z,35.9
2018-09-17T20:24:05.167Z,35.9
2018-09-17T20:26:05.028Z,35.9
2018-09-17T20:28:05.824Z,35.9
2018-09-17T20:30:08.064Z,35.7
2018-09-17T20:32:10.863Z,35.7
2018-09-17T20:34:05.148Z,35.8
2018-09-17T20:36:10.872Z,35.7
2018-09-17T20:38:05.288Z,35.7
2018-09-17T20:40:05.931Z,35.5
2018-09-17T20:42:05.796Z,35.3
2018-09-17T20:44:05.278Z,35.3
2018-09-17T20:46:11.052Z,35.3
2018-09-17T20:48:05.741Z,35.3
2018-09-17T20:50:05.434Z,35.3
2018-09-17T20:52:08.187Z,35.3
2018-09-17T20:54:08.395Z,35
2018-09-17T20:56:10.752Z,35.1
2018-09-17T20:58:08.373Z,35.3
2018-09-17T21:00:07.606Z,35.4
2018-09-17T21:02:05.301Z,35.2
2018-09-17T21:04:06.042Z,35.3
2018-09-17T21:06:08.256Z,35.4
2018-09-17T21:08:05.529Z,35.4
2018-09-17T21:10:05.173Z,35
2018-09-17T21:12:06.866Z,35.1
2018-09-17T21:14:05.720Z,35.1
2018-09-17T21:16:10.862Z,34.8
2018-09-17T21:18:08.111Z,35.1
2018-09-17T21:20:05.406Z,34.8
2018-09-17T21:22:05.229Z,35
2018-09-17T21:24:06.259Z,34.8
2018-09-17T21:26:08.519Z,34.8
2018-09-17T21:28:05.386Z,34.6
2018-09-17T21:30:05.715Z,34.9
2018-09-17T21:32:05.366Z,34.5
2018-09-17T21:34:05.058Z,34.5
2018-09-17T21:36:05.732Z,34.6
2018-09-17T21:38:05.538Z,34.3
2018-09-17T21:40:05.284Z,34.2
2018-09-17T21:42:08.505Z,34.2
2018-09-17T21:44:05.756Z,34
2018-09-17T21:46:08.508Z,34
2018-09-17T21:48:07.746Z,34.3
2018-09-17T21:50:07.993Z,34.1
2018-09-17T21:52:05.199Z,34.3
2018-09-17T21:54:06.032Z,34.4
2018-09-17T21:56:05.858Z,34.5
2018-09-17T21:58:08.108Z,34.3
2018-09-17T22:00:05.809Z,34.3
2018-09-17T22:02:05.530Z,34.3
2018-09-17T22:04:05.177Z,34.5
2018-09-17T22:06:05.869Z,34.2
2018-09-17T22:08:05.654Z,34.4
2018-09-17T22:10:10.433Z,34.2
2018-09-17T22:12:05.195Z,34.2
2018-09-17T22:14:05.899Z,34.4
2018-09-17T22:16:08.149Z,34.4
2018-09-17T22:18:05.204Z,34.4
2018-09-17T22:20:05.958Z,34.9
2018-09-17T22:22:05.635Z,35
2018-09-17T22:24:05.281Z,35.1
2018-09-17T22:26:05.070Z,35.2
2018-09-17T22:28:08.352Z,34.8
2018-09-17T22:30:07.515Z,34.9
2018-09-17T22:32:08.008Z,35
2018-09-17T22:34:05.751Z,35
2018-09-17T22:36:10.851Z,35
2018-09-17T22:38:05.933Z,35
2018-09-17T22:40:05.617Z,35
2018-09-17T22:42:05.437Z,34.8
2018-09-17T22:44:05.275Z,34.8
2018-09-17T22:46:08.579Z,34.9
2018-09-17T22:48:05.910Z,34.7
2018-09-17T22:50:05.592Z,34.9
2018-09-17T22:52:05.864Z,34.8
2018-09-17T22:54:05.568Z,34.8
2018-09-17T22:56:10.336Z,34.7
2018-09-17T22:58:05.990Z,34.7
2018-09-17T23:00:05.270Z,34.6
2018-09-17T23:02:05.975Z,34.9
2018-09-17T23:04:05.687Z,34.8
2018-09-17T23:06:05.335Z,34.6
2018-09-17T23:08:05.071Z,34.6
2018-09-17T23:10:05.788Z,34.7
2018-09-17T23:12:05.495Z,34.4
2018-09-17T23:14:12.827Z,34.3
2018-09-17T23:16:08.048Z,34.3
2018-09-17T23:18:16.028Z,34.4
2018-09-17T23:20:10.827Z,34.6
2018-09-17T23:22:05.572Z,34.6
2018-09-17T23:24:05.325Z,34.7
2018-09-17T23:26:05.086Z,34.8
2018-09-17T23:28:05.917Z,34.5
2018-09-17T23:30:05.597Z,34.9
2018-09-17T23:32:05.324Z,34.8
2018-09-17T23:34:05.007Z,34.8
2018-09-17T23:36:05.266Z,35
2018-09-17T23:38:08.556Z,35.1
2018-09-17T23:40:05.290Z,34.9
2018-09-17T23:42:04.993Z,35
2018-09-17T23:44:05.723Z,34.9
2018-09-17T23:46:05.411Z,35.1
2018-09-17T23:48:05.171Z,35.1
2018-09-17T23:50:08.426Z,35.2
2018-09-17T23:52:08.243Z,35.3
2018-09-17T23:54:10.923Z,35
2018-09-17T23:56:05.590Z,35.2
2018-09-17T23:58:05.783Z,35.1
